Time;durP1;ratioP1;P1;durP2;ratioP2;P2;SDS_P1;SDS_P2;PMS_P1;PMS_P2;Temp;Humidity;BMP_temperature;BMP_pressure;BME280_temperature;BME280_humidity;BME280_pressure;Samples;Min_cycle;Max_cycle;Signal;HPM_P1;HPM_P2
2023/02/10 00:00:35;;;;;;;31.10;18.80;;;;;;;-1.16;62.28;101962.61;123592;1330;129112;-62
2023/02/10 00:08:58;;;;;;;39.20;20.20;;;;;;;-1.19;62.46;101966.58;126457;1296;635755;-63
2023/02/10 00:17:25;;;;;;;36.80;19.20;;;;;;;-1.26;62.22;101973.73;127380;1288;637213;-63
2023/02/10 00:21:28;;;;;;;32.90;18.40;;;;;;;-1.33;62.32;101972.87;128383;1279;129850;-62
2023/02/10 00:25:20;;;;;;;;;;;;;;;;;;;;;
2023/02/10 00:29:24;;;;;;;33.60;18.20;;;;;;;-1.48;62.46;101981.56;122876;1286;5422032;-63
2023/02/10 00:33:18;;;;;;;;;;;;;;;;;;;;;
2023/02/10 00:37:03;;;;;;;40.50;24.20;;;;;;;-1.66;62.46;101973.73;123854;1335;116622;-63
2023/02/10 00:45:25;;;;;;;45.10;25.30;;;;;;;-1.79;62.53;101978.63;125902;1294;636905;-63
2023/02/10 00:49:28;;;;;;;42.50;22.40;;;;;;;-1.88;62.59;101986.08;127554;1303;128935;-63
2023/02/10 00:53:31;;;;;;;45.20;23.20;;;;;;;-1.96;63.00;101982.88;126508;1308;115356;-64
2023/02/10 00:57:32;;;;;;;41.50;23.40;;;;;;;-2.05;62.58;101990.14;121695;1309;5446988;-64
2023/02/10 01:05:53;;;;;;;44.00;22.80;;;;;;;-2.22;62.92;101987.86;126200;1295;636909;-65
2023/02/10 01:09:57;;;;;;;42.80;22.50;;;;;;;-2.34;63.26;101986.83;127509;1304;129056;-64
2023/02/10 01:13:44;;;;;;;44.70;24.10;;;;;;;-2.44;62.97;101982.30;126187;1295;115211;-64
2023/02/10 01:17:37;;;;;;;53.30;26.90;;;;;;;-2.53;63.21;101974.50;123965;1315;5391306;-64
2023/02/10 01:21:39;;;;;;;37.10;20.80;;;;;;;-2.62;63.22;101967.59;124830;1310;114953;-63
2023/02/10 01:25:42;;;;;;;41.30;23.40;;;;;;;-2.70;63.49;101963.29;124642;1329;114948;-63
2023/02/10 01:29:43;;;;;;;46.10;24.30;;;;;;;-2.78;63.41;101958.00;123781;1319;129853;-64
2023/02/10 01:33:45;;;;;;;47.50;24.10;;;;;;;-2.84;63.56;101956.21;123525;1322;115063;-62
2023/02/10 01:37:44;;;;;;;;;;;;;;;;;;;;;
2023/02/10 01:42:04;;;;;;;40.80;23.50;;;;;;;-2.91;63.92;101956.53;126517;1294;635197;-62
2023/02/10 01:46:18;;;;;;;45.00;24.50;;;;;;;-2.97;64.07;101953.88;128701;1267;127943;-63
2023/02/10 01:50:10;;;;;;;;;;;;;;;;;;;;;
2023/02/10 01:54:07;;;;;;;49.10;22.70;;;;;;;-3.06;64.31;101949.38;124476;1289;5383979;-63
2023/02/10 01:58:08;;;;;;;;;;;;;;;;;;;;;
2023/02/10 02:02:12;;;;;;;41.40;22.90;;;;;;;-3.15;64.48;101943.84;126077;1298;116232;-62
2023/02/10 02:06:23;;;;;;;;;;;;;;;;;;;;;
2023/02/10 02:10:16;;;;;;;;;;;;;;;;;;;;;
2023/02/10 02:14:37;;;;;;;44.40;22.80;;;;;;;-3.20;64.99;101966.75;125035;1307;115851;-62
2023/02/10 02:18:29;;;;;;;43.00;20.90;;;;;;;-3.22;65.15;101968.77;125011;1325;114965;-63
2023/02/10 02:22:31;;;;;;;39.80;19.70;;;;;;;-3.24;65.02;101970.27;124845;1310;114888;-63
2023/02/10 02:26:35;;;;;;;;;;;;;;;;;;;;;
2023/02/10 02:30:38;;;;;;;43.90;22.00;;;;;;;-3.28;65.33;101961.05;124840;1305;129059;-64
2023/02/10 02:34:39;;;;;;;44.20;21.50;;;;;;;-3.29;65.24;101963.98;125251;1304;115304;-63
2023/02/10 02:42:50;;;;;;;38.50;20.80;;;;;;;-3.32;65.37;101963.36;126322;1287;114955;-63
2023/02/10 02:47:04;;;;;;;38.90;19.70;;;;;;;-3.33;65.43;101962.62;125900;1314;114954;-62
2023/02/10 02:51:21;;;;;;;;;;;;;;;;;;;;;
2023/02/10 02:55:28;;;;;;;38.30;21.90;;;;;;;-3.33;65.81;101961.77;126517;1300;114896;-62
2023/02/10 02:59:40;;;;;;;;;;;;;;;;;;;;;
2023/02/10 03:03:37;;;;;;;44.80;22.40;;;;;;;-3.33;65.89;101948.84;127226;1281;114969;-62
2023/02/10 03:07:43;;;;;;;47.80;23.00;;;;;;;-3.33;65.98;101948.98;128031;1298;114803;-62
2023/02/10 03:11:43;;;;;;;45.30;22.80;;;;;;;-3.34;65.59;101948.27;126718;1286;129823;-62
2023/02/10 03:15:45;;;;;;;43.80;21.40;;;;;;;-3.34;65.96;101952.65;125915;1314;115217;-62
2023/02/10 03:24:08;;;;;;;41.00;22.00;;;;;;;-3.32;65.94;101960.20;126451;1292;636089;-63
2023/02/10 03:28:09;;;;;;;48.00;22.40;;;;;;;-3.35;66.11;101963.29;127358;1285;128882;-63
2023/02/10 03:32:14;;;;;;;43.10;21.20;;;;;;;-3.34;66.14;101969.79;126087;1314;115400;-63
2023/02/10 03:35:58;;;;;;;39.80;20.20;;;;;;;-3.33;66.16;101976.96;120857;1327;5420037;-62
2023/02/10 03:39:51;;;;;;;;;;;;;;;;;;;;;
2023/02/10 03:43:45;;;;;;;;;;;;;;;;;;;;;
2023/02/10 03:48:07;;;;;;;41.40;20.50;;;;;;;-3.28;66.31;101989.17;126387;1293;635920;-61
2023/02/10 03:52:08;;;;;;;42.50;21.60;;;;;;;-3.30;66.00;101985.44;127654;1284;128343;-62
2023/02/10 03:56:12;;;;;;;45.90;22.50;;;;;;;-3.31;66.23;101983.69;126390;1304;114815;-62
2023/02/10 04:00:06;;;;;;;45.70;20.50;;;;;;;-3.32;66.10;101994.65;122004;1300;5420145;-62
2023/02/10 04:04:08;;;;;;;41.10;22.00;;;;;;;-3.33;66.02;101997.04;124967;1307;115017;-63
2023/02/10 04:12:38;;;;;;;44.50;22.10;;;;;;;-3.34;66.34;101996.69;125766;1297;638529;-62
2023/02/10 04:16:50;;;;;;;40.40;20.70;;;;;;;-3.37;66.37;101993.77;128157;1298;129083;-62
2023/02/10 04:20:51;;;;;;;42.80;21.90;;;;;;;-3.39;66.38;101997.20;127984;1298;115368;-62
2023/02/10 04:24:46;;;;;;;39.60;20.50;;;;;;;-3.41;66.25;102002.89;122850;1286;5429606;-61
2023/02/10 04:28:47;;;;;;;41.10;20.80;;;;;;;-3.44;66.23;102002.63;125877;1298;114917;-62
2023/02/10 04:32:48;;;;;;;41.10;20.50;;;;;;;-3.46;66.37;102000.77;125604;1318;114892;-62
2023/02/10 04:36:42;;;;;;;;;;;;;;;;;;;;;
2023/02/10 04:44:51;;;;;;;43.90;22.00;;;;;;;-3.48;66.79;101991.29;126205;1293;636197;-63
2023/02/10 04:48:52;;;;;;;41.80;21.80;;;;;;;-3.52;66.72;101995.88;127803;1297;128161;-64
2023/02/10 04:52:55;;;;;;;45.20;23.30;;;;;;;-3.51;67.02;102001.66;127130;1286;115313;-63
2023/02/10 04:56:58;;;;;;;43.00;21.90;;;;;;;-3.51;66.85;101997.14;122208;1313;5423049;-63
2023/02/10 05:00:51;;;;;;;39.00;21.20;;;;;;;-3.48;66.39;102000.20;124194;1331;114918;-63
2023/02/10 05:09:13;;;;;;;41.40;21.40;;;;;;;-3.38;66.98;101985.52;125732;1295;636073;-63
2023/02/10 05:13:15;;;;;;;39.30;20.50;;;;;;;-3.36;67.09;101989.10;127709;1299;128759;-63
2023/02/10 05:17:18;;;;;;;44.70;20.10;;;;;;;-3.31;66.78;102001.15;125837;1315;115339;-64
2023/02/10 05:21:19;;;;;;;41.50;20.70;;;;;;;-3.25;67.11;102009.92;121170;1308;5443362;-63
2023/02/10 05:24:54;;;;;;;42.70;22.00;;;;;;;-3.17;67.02;102008.09;123809;1317;114960;-63
2023/02/10 05:28:47;;;;;;;27.80;15.30;;;;;;;-3.05;66.88;102008.12;123597;1321;115081;-63
2023/02/10 05:32:56;;;;;;;;;;;;;;;;;;;;;
2023/02/10 05:40:02;;;;;;;37.40;20.60;;;;;;;-2.51;67.14;102020.94;126202;1305;636392;-63
2023/02/10 05:44:08;;;;;;;42.80;20.60;;;;;;;-2.37;67.38;102022.92;130154;1269;115125;-64
2023/02/10 05:47:33;;;;;;;44.00;21.00;;;;;;;-2.19;67.38;102026.14;128696;1284;115518;-63
2023/02/10 05:51:38;;;;;;;46.60;23.60;;;;;;;-2.04;67.35;102035.35;128797;1276;114753;-64
2023/02/10 05:55:35;;;;;;;;;;;;;;;;;;;;;
2023/02/10 05:59:43;;;;;;;;;;;;;;;;;;;;;
2023/02/10 06:07:55;;;;;;;38.10;21.10;;;;;;;-1.46;66.53;102046.66;125794;1310;128555;-64
2023/02/10 06:11:26;;;;;;;43.70;20.20;;;;;;;-1.32;66.59;102055.62;125551;1298;115090;-65
2023/02/10 06:28:14;;;;;;;43.10;23.70;;;;;;;-0.92;66.13;102079.14;127914;1301;128781;-65
2023/02/10 06:32:20;;;;;;;45.20;22.80;;;;;;;-0.84;65.91;102084.45;127299;1305;115300;-64
2023/02/10 06:36:52;;;;;;;42.00;22.10;;;;;;;-0.76;65.98;102078.51;121140;1292;8367114;-65
2023/02/10 06:40:25;;;;;;;;;;;;;;;;;;;;;
2023/02/10 06:48:10;;;;;;;38.00;21.80;;;;;;;-0.48;65.54;102076.21;124809;1319;115036;-66
2023/02/10 06:57:19;;;;;;;;;;;;;;;;;;;;;
2023/02/10 07:01:37;;;;;;;40.50;21.70;;;;;;;-0.11;65.41;102080.10;127960;1283;128197;-65
2023/02/10 07:04:53;;;;;;;36.10;20.30;;;;;;;0.00;65.38;102078.95;127545;1286;115821;-66
2023/02/10 07:08:54;;;;;;;44.10;20.40;;;;;;;0.10;65.28;102078.63;123463;1287;5653743;-64
2023/02/10 07:12:50;;;;;;;;;;;;;;;;;;;;;
2023/02/10 07:20:51;;;;;;;;;;;;;;;;;;;;;
2023/02/10 07:29:28;;;;;;;43.20;24.50;;;;;;;0.55;64.76;102096.30;126107;1305;638648;-64
2023/02/10 07:33:28;;;;;;;;;;;;;;;;;;;;;
2023/02/10 07:42:11;;;;;;;;;;;;;;;;;;;;;
2023/02/10 07:49:58;;;;;;;;;;;;;;;;;;;;;
2023/02/10 07:57:28;;;;;;;38.60;20.10;;;;;;;1.24;63.85;102093.23;124329;1316;116526;-66
2023/02/10 08:05:10;;;;;;;42.30;23.40;;;;;;;1.56;63.59;102097.30;126256;1299;635662;-64
2023/02/10 08:13:14;;;;;;;;;;;;;;;;;;;;;
2023/02/10 08:17:17;;;;;;;44.50;25.70;;;;;;;1.93;63.49;102091.91;120911;1320;6604285;-63
2023/02/10 08:21:18;;;;;;;52.10;26.70;;;;;;;2.15;63.58;102094.86;124540;1331;114876;-64
2023/02/10 08:29:33;;;;;;;46.00;25.30;;;;;;;2.57;63.56;102100.18;127035;1298;635886;-65
2023/02/10 08:33:35;;;;;;;55.10;25.90;;;;;;;2.74;63.48;102100.73;127527;1295;128494;-64
2023/02/10 08:37:37;;;;;;;42.80;24.90;;;;;;;2.89;63.37;102094.91;126740;1290;115300;-65
2023/02/10 08:41:41;;;;;;;52.50;27.50;;;;;;;2.97;63.06;102093.77;122969;1299;5432186;-65
2023/02/10 08:45:40;;;;;;;;;;;;;;;;;;;;;
2023/02/10 08:53:55;;;;;;;52.10;28.00;;;;;;;3.25;63.12;102098.64;126543;1296;637022;-64
2023/02/10 08:57:56;;;;;;;48.70;28.10;;;;;;;3.34;63.26;102101.73;127567;1288;128472;-65
2023/02/10 09:02:01;;;;;;;55.80;28.90;;;;;;;3.46;63.09;102099.38;126128;1296;115414;-65
2023/02/10 09:06:01;;;;;;;58.30;29.30;;;;;;;3.55;63.07;102092.21;121609;1320;5446202;-65
2023/02/10 09:10:02;;;;;;;47.80;27.20;;;;;;;3.63;63.12;102089.45;125164;1324;114970;-63
2023/02/10 09:18:24;;;;;;;55.60;26.80;;;;;;;3.81;63.11;102091.89;126232;1292;635394;-66
2023/02/10 09:22:20;;;;;;;;;;;;;;;;;;;;;
2023/02/10 09:26:24;;;;;;;53.70;26.90;;;;;;;4.20;63.31;102108.06;126185;1300;115291;-64
2023/02/10 09:30:17;;;;;;;;;;;;;;;;;;;;;
2023/02/10 09:34:15;;;;;;;55.40;27.10;;;;;;;4.55;63.01;102108.07;126141;1299;114885;-65
2023/02/10 09:38:16;;;;;;;47.50;24.60;;;;;;;4.72;62.73;102108.85;125688;1316;115052;-64
2023/02/10 09:42:33;;;;;;;49.10;27.00;;;;;;;4.81;62.57;102118.27;124645;1313;114907;-65
2023/02/10 09:46:16;;;;;;;;;;;;;;;4.92;62.61;102113.70;124619;1310;130147;-65
2023/02/10 09:50:34;;;;;;;;;;;;;;;;;;;;;
2023/02/10 09:54:33;;;;;;;45.80;25.60;;;;;;;5.14;62.50;102120.31;123899;1335;114939;-64
2023/02/10 09:58:39;;;;;;;;;;;;;;;;;;;;;
2023/02/10 10:02:36;;;;;;;60.40;30.60;;;;;;;5.53;62.36;102132.86;126915;1286;635994;-65
2023/02/10 10:06:46;;;;;;;;;;;;;;;;;;;;;
2023/02/10 10:19:02;;;;;;;;;;;;;;;;;;;;;
2023/02/10 10:23:36;;;;;;;45.40;22.60;;;;;;;6.16;60.88;102123.58;127965;1282;114772;-61
2023/02/10 10:27:54;;;;;;;44.70;23.30;;;;;;;6.08;60.86;102121.81;128108;1288;114791;-62
2023/02/10 10:32:09;;;;;;;39.60;22.60;;;;;;;6.17;60.93;102122.70;127505;1293;128468;-62
2023/02/10 10:36:14;;;;;;;51.10;23.60;;;;;;;6.35;61.10;102124.95;126704;1289;115285;-61
2023/02/10 10:40:19;;;;;;;47.20;23.00;;;;;;;6.59;61.14;102123.45;126264;1297;114860;-63
2023/02/10 10:44:18;;;;;;;42.70;23.20;;;;;;;6.72;60.76;102119.51;126316;1309;114983;-61
2023/02/10 10:48:35;;;;;;;44.70;23.80;;;;;;;6.68;60.24;102117.58;126177;1313;114983;-61
2023/02/10 10:52:37;;;;;;;42.40;23.60;;;;;;;6.70;60.21;102118.27;126121;1296;129699;-62
2023/02/10 10:56:31;;;;;;;;;;;;;;;;;;;;;
2023/02/10 11:00:26;;;;;;;42.10;22.30;;;;;;;6.90;60.03;102109.30;126971;1306;114995;-62
2023/02/10 11:04:09;;;;;;;46.00;23.20;;;;;;;6.90;59.95;102102.55;126255;1294;114913;-62
2023/02/10 11:07:53;;;;;;;;;;;;;;;;;;;;;
2023/02/10 11:11:40;;;;;;;47.20;22.60;;;;;;;6.86;59.39;102098.48;126604;1299;129655;-62
2023/02/10 11:15:45;;;;;;;44.00;21.00;;;;;;;6.84;59.52;102091.93;128085;1287;115207;-62
2023/02/10 11:19:44;;;;;;;43.40;22.00;;;;;;;6.89;59.54;102087.81;128033;1274;114918;-62
2023/02/10 11:23:45;;;;;;;45.70;23.60;;;;;;;6.91;59.55;102087.63;127895;1298;114846;-62
2023/02/10 11:27:45;;;;;;;;;;;;;;;;;;;;;
2023/02/10 11:31:50;;;;;;;;;;;;;;;;;;;;;
2023/02/10 11:35:36;;;;;;;;;;;;;;;;;;;;;
2023/02/10 11:39:28;;;;;;;42.60;22.80;;;;;;;7.07;59.40;102081.67;127421;1286;114944;-62
2023/02/10 11:43:15;;;;;;;;;;;;;;;;;;;;;
2023/02/10 11:47:10;;;;;;;;;;;;;;;;;;;;;
2023/02/10 11:51:00;;;;;;;;;;;;;;;;;;;;;
2023/02/10 11:54:45;;;;;;;;;;;;;;;;;;;;;
2023/02/10 12:02:36;;;;;;;;;;;;;;;;;;;;;
2023/02/10 12:06:10;;;;;;;;;;;;;;;;;;;;;
2023/02/10 12:10:01;;;;;;;;;;;;;;;;;;;;;
2023/02/10 12:13:48;;;;;;;43.00;23.30;;;;;;;7.03;58.64;102082.23;126592;1293;115490;-62
2023/02/10 12:17:29;;;;;;;;;;;;;;;;;;;;;
2023/02/10 12:21:38;;;;;;;;;;;;;;;;;;;;;
2023/02/10 12:29:56;;;;;;;39.90;23.10;;;;;;;6.90;58.63;102083.02;128405;1270;128360;-62
2023/02/10 12:34:13;;;;;;;36.70;21.10;;;;;;;6.91;58.24;102087.81;129217;1266;115254;-62
2023/02/10 12:38:49;;;;;;;45.70;22.50;;;;;;;6.87;58.63;102089.77;128472;1278;114874;-63
2023/02/10 12:42:59;;;;;;;;;;;;;;;;;;;;;
2023/02/10 12:46:51;;;;;;;;;;;;;;;;;;;;;
2023/02/10 12:51:13;;;;;;;46.10;21.80;;;;;;;6.75;58.51;102091.26;128101;1283;127866;-63
2023/02/10 12:55:24;;;;;;;37.20;21.00;;;;;;;6.77;58.40;102089.48;128477;1277;114838;-62
2023/02/10 12:59:34;;;;;;;47.00;22.60;;;;;;;6.81;58.58;102088.91;128348;1273;114972;-62
2023/02/10 13:03:34;;;;;;;;;;;;;;;;;;;;;
2023/02/10 13:07:41;;;;;;;41.20;18.70;;;;;;;6.84;58.70;102087.48;127820;1280;114950;-63
2023/02/10 13:11:51;;;;;;;40.00;20.30;;;;;;;6.83;58.54;102087.66;127946;1285;128702;-63
2023/02/10 13:15:47;;;;;;;46.70;20.00;;;;;;;6.69;58.42;102084.02;127267;1299;115322;-63
2023/02/10 13:19:47;;;;;;;;;;;;;;;;;;;;;
2023/02/10 13:23:57;;;;;;;39.00;20.40;;;;;;;6.61;58.59;102087.60;127032;1302;114958;-62
2023/02/10 13:27:58;;;;;;;;;;;;;;;;;;;;;
2023/02/10 13:31:55;;;;;;;;;;;;;;;;;;;;;
2023/02/10 13:35:55;;;;;;;;;;;;;;;;;;;;;
2023/02/10 13:40:03;;;;;;;40.40;20.10;;;;;;;6.33;58.55;102088.23;126102;1310;114984;-61
2023/02/10 13:43:57;;;;;;;;;;;;;;;;;;;;;
2023/02/10 13:48:17;;;;;;;38.30;20.90;;;;;;;6.13;58.68;102093.77;124989;1319;115023;-62
2023/02/10 13:52:19;;;;;;;47.60;22.40;;;;;;;6.03;59.05;102093.09;125976;1308;128661;-61
2023/02/10 13:56:10;;;;;;;41.10;20.20;;;;;;;5.91;59.13;102093.25;126351;1291;115273;-62
2023/02/10 14:00:10;;;;;;;;;;;;;;;;;;;;;
2023/02/10 14:03:55;;;;;;;;;;;;;;;;;;;;;
2023/02/10 14:07:42;;;;;;;39.60;19.90;;;;;;;5.72;59.34;102119.50;125784;1297;115430;-62
2023/02/10 14:11:38;;;;;;;;;;;;;;;;;;;;;
2023/02/10 14:15:47;;;;;;;;;;;;;;;;;;;;;
2023/02/10 14:20:06;;;;;;;44.10;20.00;;;;;;;5.51;59.75;102115.42;125941;1298;114966;-62
2023/02/10 14:24:02;;;;;;;35.10;19.60;;;;;;;5.52;59.95;102113.29;126199;1299;114997;-61
2023/02/10 14:28:03;;;;;;;42.10;20.20;;;;;;;5.52;59.87;102112.58;126433;1311;114882;-62
2023/02/10 14:31:59;;;;;;;;;;;;;;;;;;;;;
2023/02/10 14:36:02;;;;;;;33.30;17.20;;;;;;;5.47;60.03;102123.73;126545;1291;115609;-63
2023/02/10 14:39:53;;;;;;;40.90;20.30;;;;;;;5.46;60.08;102128.34;126108;1297;114865;-62
2023/02/10 14:43:54;;;;;;;36.30;18.90;;;;;;;5.45;59.85;102125.52;126820;1308;114980;-63
2023/02/10 14:47:51;;;;;;;;;;;;;;;;;;;;;
2023/02/10 14:51:54;;;;;;;;;;;;;;;;;;;;;
2023/02/10 15:00:10;;;;;;;42.40;19.00;;;;;;;5.24;60.11;102121.05;125766;1307;114861;-63
2023/02/10 15:04:12;;;;;;;35.80;18.40;;;;;;;5.21;60.17;102121.58;125777;1313;114991;-63
2023/02/10 15:08:10;;;;;;;45.30;20.20;;;;;;;5.13;60.26;102126.69;125601;1311;115009;-63
2023/02/10 15:16:08;;;;;;;;;;;;;;;;;;;;;
2023/02/10 15:20:03;;;;;;;;;;;;;;;;;;;;;
2023/02/10 15:23:58;;;;;;;;;;;;;;;;;;;;;
2023/02/10 15:28:01;;;;;;;;;;;;;;;;;;;;;
2023/02/10 15:32:07;;;;;;;39.70;19.30;;;;;;;4.54;60.73;102122.92;125321;1305;130602;-63
2023/02/10 15:35:53;;;;;;;;;;;;;;;;;;;;;
2023/02/10 15:39:52;;;;;;;44.60;22.40;;;;;;;4.30;61.19;102124.74;125465;1306;115433;-62
2023/02/10 15:44:07;;;;;;;44.20;21.10;;;;;;;4.23;61.35;102128.95;125146;1306;114847;-63
2023/02/10 15:48:18;;;;;;;43.40;24.90;;;;;;;4.16;61.55;102132.08;124837;1312;114995;-63
2023/02/10 15:52:29;;;;;;;;;;;;;;;;;;;;;
2023/02/10 15:56:08;;;;;;;38.60;21.00;;;;;;;4.00;61.64;102138.15;124633;1311;115575;-62
2023/02/10 16:00:00;;;;;;;44.70;19.00;;;;;;;3.95;61.72;102135.83;124490;1308;114941;-63
2023/02/10 16:07:49;;;;;;;;;;;;;;;;;;;;;
2023/02/10 16:16:14;;;;;;;37.30;18.10;;;;;;;3.84;62.36;102143.70;126181;1305;635739;-62
2023/02/10 16:20:09;;;;;;;37.60;16.70;;;;;;;3.84;62.35;102154.29;127507;1285;128987;-63
2023/02/10 16:24:10;;;;;;;27.10;14.40;;;;;;;3.87;62.32;102155.02;126461;1289;115225;-63
2023/02/10 16:28:05;;;;;;;32.20;15.00;;;;;;;3.88;62.33;102158.41;122428;1293;5431600;-62
2023/02/10 16:31:50;;;;;;;26.00;13.80;;;;;;;3.90;62.23;102157.69;125734;1296;114933;-63
2023/02/10 16:35:34;;;;;;;;;;;;;;;;;;;;;
2023/02/10 16:39:36;;;;;;;25.70;12.60;;;;;;;3.87;62.37;102154.67;125949;1306;129651;-62
2023/02/10 16:43:27;;;;;;;26.10;12.80;;;;;;;3.87;62.40;102154.51;124763;1319;115236;-60
2023/02/10 16:47:22;;;;;;;25.10;11.70;;;;;;;3.84;62.49;102160.13;124029;1326;114990;-62
2023/02/10 16:55:36;;;;;;;;;;;;;;;;;;;;;
2023/02/10 16:59:33;;;;;;;;;;;;;;;;;;;;;
2023/02/10 17:03:30;;;;;;;;;;;;;;;;;;;;;
2023/02/10 17:07:19;;;;;;;;;;;;;;;;;;;;;
2023/02/10 17:11:21;;;;;;;30.50;14.70;;;;;;;3.64;62.50;102155.01;120678;1322;115310;-62
2023/02/10 17:15:14;;;;;;;;;;;;;;;;;;;;;
2023/02/10 17:19:09;;;;;;;32.80;14.60;;;;;;;3.63;62.70;102161.37;124091;1331;114918;-62
2023/02/10 17:27:13;;;;;;;42.50;19.30;;;;;;;3.63;62.53;102163.48;126065;1294;636988;-63
2023/02/10 17:31:15;;;;;;;63.40;26.00;;;;;;;3.59;62.67;102164.15;128613;1278;128890;-63
2023/02/10 17:35:09;;;;;;;;;;;;;;;;;;;;;
2023/02/10 17:43:11;;;;;;;30.30;10.80;;;;;;;3.50;62.93;102173.25;126827;1307;114984;-62
2023/02/10 17:46:56;;;;;;;25.80;10.80;;;;;;;3.52;62.94;102169.55;125679;1299;129701;-62
2023/02/10 17:50:48;;;;;;;27.50;11.40;;;;;;;3.57;63.15;102176.49;125748;1299;115254;-60
2023/02/10 17:54:28;;;;;;;;;;;;;;;;;;;;;
2023/02/10 17:58:15;;;;;;;39.20;14.00;;;;;;;3.72;63.17;102177.87;125338;1303;114997;-61
2023/02/10 18:06:14;;;;;;;;;;;;;;;;;;;;;
2023/02/10 18:10:10;;;;;;;;;;;;;;;;;;;;;
2023/02/10 18:14:04;;;;;;;;;;;;;;;;;;;;;
2023/02/10 18:17:50;;;;;;;;;;;;;;;;;;;;;
2023/02/10 18:21:59;;;;;;;26.20;11.50;;;;;;;3.93;63.19;102168.16;124330;1282;114938;-64
2023/02/10 18:25:32;;;;;;;17.80;10.10;;;;;;;3.93;63.04;102165.70;127345;1283;115047;-63
2023/02/10 18:29:29;;;;;;;21.90;11.10;;;;;;;3.92;63.18;102165.67;127358;1285;114952;-63
2023/02/10 18:33:12;;;;;;;;;;;;;;;;;;;;;
2023/02/10 18:37:08;;;;;;;23.80;10.90;;;;;;;3.91;63.16;102171.67;125985;1298;115382;-63
2023/02/10 18:40:55;;;;;;;28.50;11.60;;;;;;;3.89;63.03;102173.07;125107;1307;114994;-61
2023/02/10 18:44:33;;;;;;;;;;;;;;;;;;;;;
2023/02/10 18:48:35;;;;;;;29.30;11.30;;;;;;;3.87;63.11;102164.23;124629;1324;115024;-62
2023/02/10 18:52:29;;;;;;;25.10;11.90;;;;;;;3.84;63.21;102174.45;125526;1301;129793;-62
2023/02/10 18:56:05;;;;;;;;;;;;;;;;;;;;;
2023/02/10 18:59:59;;;;;;;;;;;;;;;;;;;;;
2023/02/10 19:08:19;;;;;;;;;;;;;;;;;;;;;
2023/02/10 19:12:03;;;;;;;74.40;38.20;;;;;;;3.69;62.87;102178.02;128588;1294;126858;-62
2023/02/10 19:15:46;;;;;;;76.40;41.70;;;;;;;3.66;62.65;102172.52;128669;1274;115402;-63
2023/02/10 19:19:42;;;;;;;;;;;;;;;;;;;;;
2023/02/10 19:23:41;;;;;;;77.80;42.70;;;;;;;3.59;62.37;102156.38;123115;1301;114966;-63
2023/02/10 19:27:42;;;;;;;78.30;41.90;;;;;;;3.56;62.28;102143.27;126508;1289;114906;-62
2023/02/10 19:31:33;;;;;;;79.60;42.90;;;;;;;3.50;62.16;102146.76;125773;1309;114996;-62
2023/02/10 19:35:24;;;;;;;77.40;40.50;;;;;;;3.44;62.17;102143.34;125739;1298;129856;-62
2023/02/10 19:39:12;;;;;;;74.00;40.50;;;;;;;3.40;62.15;102142.23;125622;1301;115266;-62
2023/02/10 19:47:12;;;;;;;;;;;;;;;;;;;;;
2023/02/10 19:51:17;;;;;;;72.80;39.10;;;;;;;3.26;62.36;102126.73;128974;1272;128047;-62
2023/02/10 19:54:57;;;;;;;;;;;;;;;;;;;;;
2023/02/10 19:58:32;;;;;;;66.30;37.00;;;;;;;3.14;62.49;102109.66;126975;1296;114953;-62
2023/02/10 20:02:04;;;;;;;65.40;37.80;;;;;;;3.06;62.45;102108.34;125710;1280;114821;-64
2023/02/10 20:05:45;;;;;;;76.50;40.10;;;;;;;2.98;62.33;102109.13;128051;1278;114864;-62
2023/02/10 20:09:45;;;;;;;;;;;;;;;;;;;;;
2023/02/10 20:14:11;;;;;;;66.60;37.30;;;;;;;2.84;62.64;102111.10;127223;1284;128966;-61
2023/02/10 20:18:09;;;;;;;;;;;;;;;;;;;;;
2023/02/10 20:22:10;;;;;;;67.10;36.20;;;;;;;2.73;62.84;102111.67;125429;1321;114856;-62
2023/02/10 20:26:10;;;;;;;65.90;35.00;;;;;;;2.70;62.86;102110.58;124849;1319;114828;-61
2023/02/10 20:30:12;;;;;;;58.20;32.50;;;;;;;2.69;62.99;102104.77;124109;1315;116660;-62
2023/02/10 20:42:14;;;;;;;68.20;34.80;;;;;;;2.64;63.05;102075.76;128202;1272;128995;-62
2023/02/10 20:46:18;;;;;;;70.90;35.90;;;;;;;2.65;63.21;102072.41;127718;1279;114957;-61
2023/02/10 20:50:22;;;;;;;77.10;38.40;;;;;;;2.69;63.24;102077.41;123505;1291;5484130;-63
2023/02/10 20:54:13;;;;;;;76.30;37.30;;;;;;;2.72;63.32;102081.50;125592;1298;115516;-61
2023/02/10 20:57:56;;;;;;;;;;;;;;;;;;;;;
2023/02/10 21:01:42;;;;;;;71.40;35.70;;;;;;;2.80;63.38;102068.19;124826;1319;128548;-62
2023/02/10 21:05:44;;;;;;;62.90;26.80;;;;;;;2.83;63.24;102060.44;124800;1310;115076;-61
2023/02/10 21:09:35;;;;;;;89.00;37.90;;;;;;;2.84;63.44;102054.45;124215;1331;114913;-61
2023/02/10 21:13:20;;;;;;;91.00;40.60;;;;;;;2.82;63.02;102040.48;124009;1331;114994;-62
2023/02/10 21:20:47;;;;;;;;;;;;;;;;;;;;;
2023/02/10 21:28:55;;;;;;;113.80;48.50;;;;;;;2.51;63.88;102038.20;127346;1287;115298;-66
2023/02/10 21:32:58;;;;;;;115.30;48.00;;;;;;;2.48;63.76;102038.17;126419;1296;114949;-68
2023/02/10 21:37:03;;;;;;;108.60;45.20;;;;;;;2.41;63.75;102040.91;122084;1301;114945;-65
2023/02/10 21:41:05;;;;;;;88.70;40.70;;;;;;;2.35;63.74;102039.59;125204;1314;114949;-65
2023/02/10 21:44:45;;;;;;;86.00;38.80;;;;;;;2.28;64.03;102037.92;123386;1318;115111;-67
2023/02/10 21:48:45;;;;;;;;;;;;;;;;;;;;;
2023/02/10 21:52:48;;;;;;;81.00;37.60;;;;;;;2.13;63.98;102027.86;126351;1299;635057;-66
2023/02/10 22:00:26;;;;;;;;;;;;;;;;;;;;;
2023/02/10 22:03:30;;;;;;;76.20;37.60;;;;;;;1.86;64.31;102024.48;126965;1296;114979;-66
2023/02/10 22:07:23;;;;;;;73.00;36.90;;;;;;;1.77;64.16;102020.48;123081;1289;5438810;-66
2023/02/10 22:11:03;;;;;;;63.80;35.30;;;;;;;1.62;64.09;102018.34;126808;1290;115239;-66
2023/02/10 22:14:49;;;;;;;67.90;35.70;;;;;;;1.49;64.43;102014.07;126280;1287;114784;-65
2023/02/10 22:18:47;;;;;;;54.70;27.10;;;;;;;1.34;64.52;102013.14;126381;1298;129742;-65
2023/02/10 22:22:30;;;;;;;;;;;;;;;;;;;;;
2023/02/10 22:26:33;;;;;;;78.10;37.70;;;;;;;1.02;64.56;102011.71;125368;1313;115081;-68
2023/02/10 22:34:56;;;;;;;108.00;50.30;;;;;;;0.70;64.98;102020.29;125475;1302;638539;-68
2023/02/10 22:38:37;;;;;;;;;;;;;;;;;;;;;
2023/02/10 22:42:39;;;;;;;101.50;47.10;;;;;;;0.42;65.27;102016.05;127143;1286;115264;-66
2023/02/10 22:46:43;;;;;;;90.60;43.50;;;;;;;0.31;65.46;102018.98;122584;1292;5410192;-64
2023/02/10 22:50:17;;;;;;;;;;;;;;;;;;;;;
2023/02/10 22:54:12;;;;;;;;;;;;;;;;;;;;;
2023/02/10 22:58:05;;;;;;;;;;;;;;;;;;;;;
2023/02/10 23:02:10;;;;;;;109.60;52.20;;;;;;;-0.06;65.70;102000.11;124085;1315;115548;-65
2023/02/10 23:05:51;;;;;;;101.20;45.40;;;;;;;-0.12;65.84;102000.70;124045;1315;115061;-66
2023/02/10 23:14:04;;;;;;;;;;;;;;;;;;;;;
2023/02/10 23:18:07;;;;;;;;;;;;;;;;;;;;;
2023/02/10 23:22:03;;;;;;;;;;;;;;;;;;;;;
2023/02/10 23:26:08;;;;;;;91.80;36.60;;;;;;;-0.36;66.70;101962.05;124922;1285;5455145;-65
2023/02/10 23:29:57;;;;;;;;;;;;;;;;;;;;;
2023/02/10 23:33:51;;;;;;;;;;;;;;;;;;;;;
2023/02/10 23:37:43;;;;;;;;;;;;;;;;;;;;;
2023/02/10 23:46:05;;;;;;;64.60;33.50;;;;;;;0.10;67.84;101926.33;126522;1295;635166;-64
2023/02/10 23:49:56;;;;;;;74.30;36.50;;;;;;;0.26;68.16;101909.94;127490;1284;129117;-63
2023/02/10 23:53:57;;;;;;;;;;;;;;;;;;;;;
2023/02/10 23:57:58;;;;;;;;;;;;;;;;;;;;;
